createdAt,value
2023-05-16T00:02:26.283Z,12.83
2023-05-16T00:04:54.817Z,12.77
2023-05-16T00:07:22.392Z,12.72
2023-05-16T00:09:50.467Z,12.69
2023-05-16T00:12:17.964Z,12.67
2023-05-16T00:14:46.028Z,12.61
2023-05-16T00:17:13.669Z,12.60
2023-05-16T00:19:42.433Z,12.53
2023-05-16T00:22:11.668Z,12.49
2023-05-16T00:24:39.782Z,12.50
2023-05-16T00:27:08.275Z,12.70
2023-05-16T00:29:36.539Z,12.90
2023-05-16T00:32:04.883Z,12.98
2023-05-16T00:34:32.498Z,13.03
2023-05-16T00:37:00.234Z,13.01
2023-05-16T00:39:28.086Z,13.03
2023-05-16T00:41:57.918Z,12.98
2023-05-16T00:44:25.509Z,12.96
2023-05-16T00:46:54.560Z,12.94
2023-05-16T00:49:22.502Z,12.88
2023-05-16T00:51:50.438Z,12.83
2023-05-16T00:54:20.761Z,12.76
2023-05-16T00:56:51.528Z,12.67
2023-05-16T00:59:20.486Z,12.60
2023-05-16T01:01:48.979Z,12.55
2023-05-16T01:04:18.179Z,12.50
2023-05-16T01:06:46.377Z,12.53
2023-05-16T01:09:14.787Z,12.56
2023-05-16T01:12:13.250Z,12.65
2023-05-16T01:14:46.565Z,12.63
2023-05-16T01:17:39.608Z,12.65
2023-05-16T01:20:17.108Z,12.62
2023-05-16T01:22:46.212Z,12.57
2023-05-16T01:25:36.670Z,12.52
2023-05-16T01:28:05.254Z,12.42
2023-05-16T01:30:37.429Z,12.35
2023-05-16T01:33:05.299Z,12.29
2023-05-16T01:35:33.651Z,12.22
2023-05-16T01:38:04.661Z,12.19
2023-05-16T01:40:51.073Z,12.17
2023-05-16T01:43:42.424Z,12.16
2023-05-16T01:46:14.564Z,12.12
2023-05-16T01:48:53.677Z,12.12
2023-05-16T01:51:30.806Z,12.11
2023-05-16T01:54:05.623Z,12.14
2023-05-16T01:56:34.796Z,12.16
2023-05-16T01:59:03.243Z,12.18
2023-05-16T02:01:33.153Z,12.17
2023-05-16T02:04:01.186Z,12.13
2023-05-16T02:06:28.877Z,12.17
2023-05-16T02:08:57.665Z,12.19
2023-05-16T02:11:25.238Z,12.19
2023-05-16T02:13:53.224Z,12.26
2023-05-16T02:16:21.037Z,12.29
2023-05-16T02:18:48.794Z,12.30
2023-05-16T02:21:36.546Z,12.32
2023-05-16T02:24:05.038Z,12.39
2023-05-16T02:26:32.671Z,12.36
2023-05-16T02:29:00.904Z,12.42
2023-05-16T02:31:33.523Z,12.46
2023-05-16T02:34:02.091Z,12.47
2023-05-16T02:36:29.982Z,12.49
2023-05-16T02:38:57.466Z,12.51
2023-05-16T02:41:25.536Z,12.56
2023-05-16T02:43:53.579Z,12.64
2023-05-16T02:46:26.108Z,12.71
2023-05-16T02:48:57.869Z,12.73
2023-05-16T02:51:27.188Z,12.79
2023-05-16T02:53:57.380Z,12.84
2023-05-16T02:56:26.945Z,12.89
2023-05-16T02:58:55.527Z,12.96
2023-05-16T03:01:23.352Z,12.99
2023-05-16T03:03:51.269Z,13.06
2023-05-16T03:06:19.526Z,13.14
2023-05-16T03:08:47.453Z,13.19
2023-05-16T03:11:23.075Z,13.27
2023-05-16T03:13:50.896Z,13.33
2023-05-16T03:16:18.839Z,13.40
2023-05-16T03:18:46.629Z,13.48
2023-05-16T03:21:15.382Z,13.54
2023-05-16T03:23:45.665Z,13.63
2023-05-16T03:26:13.620Z,13.68
2023-05-16T03:28:41.222Z,13.79
2023-05-16T03:31:09.066Z,13.86
2023-05-16T03:33:36.895Z,13.94
2023-05-16T03:36:05.499Z,14.02
2023-05-16T03:38:33.505Z,14.09
2023-05-16T03:41:01.439Z,14.18
2023-05-16T03:43:29.329Z,14.23
2023-05-16T03:45:57.067Z,14.32
2023-05-16T03:48:25.129Z,14.37
2023-05-16T03:50:53.107Z,14.43
2023-05-16T03:53:21.097Z,14.52
2023-05-16T03:55:49.161Z,14.60
2023-05-16T03:58:17.173Z,14.64
2023-05-16T04:00:46.333Z,14.75
2023-05-16T04:03:14.003Z,14.80
2023-05-16T04:05:41.696Z,14.87
2023-05-16T04:08:09.518Z,14.92
2023-05-16T04:10:37.011Z,14.97
2023-05-16T04:13:04.715Z,15.03
2023-05-16T04:15:32.476Z,15.02
2023-05-16T04:18:00.211Z,15.07
2023-05-16T04:20:28.302Z,15.15
2023-05-16T04:22:55.900Z,15.20
2023-05-16T04:25:23.856Z,15.25
2023-05-16T04:27:51.500Z,15.31
2023-05-16T04:30:19.454Z,15.37
2023-05-16T04:32:47.196Z,15.44
2023-05-16T04:35:14.700Z,15.48
2023-05-16T04:37:43.742Z,15.55
2023-05-16T04:40:13.425Z,15.60
2023-05-16T04:42:41.047Z,15.65
2023-05-16T04:45:11.636Z,15.68
2023-05-16T04:47:39.406Z,15.71
2023-05-16T04:50:09.148Z,15.77
2023-05-16T04:52:38.252Z,15.79
2023-05-16T04:55:07.399Z,15.83
2023-05-16T04:57:35.082Z,15.88
2023-05-16T05:00:02.725Z,15.90
2023-05-16T05:02:32.157Z,15.92
2023-05-16T05:04:59.642Z,15.93
2023-05-16T05:07:29.297Z,15.98
2023-05-16T05:09:56.935Z,16.04
2023-05-16T05:12:25.387Z,16.12
2023-05-16T05:14:53.094Z,16.17
2023-05-16T05:17:22.015Z,16.23
2023-05-16T05:19:50.055Z,16.32
2023-05-16T05:22:18.021Z,16.37
2023-05-16T05:24:46.240Z,16.41
2023-05-16T05:27:14.027Z,16.48
2023-05-16T05:29:41.841Z,16.55
2023-05-16T05:32:09.983Z,16.59
2023-05-16T05:34:37.779Z,16.64
2023-05-16T05:37:05.535Z,16.68
2023-05-16T05:39:33.260Z,16.76
2023-05-16T05:42:03.717Z,16.78
2023-05-16T05:44:31.364Z,16.87
2023-05-16T05:46:59.197Z,16.92
2023-05-16T05:49:27.960Z,16.99
2023-05-16T05:51:55.686Z,17.04
2023-05-16T05:54:23.829Z,17.14
2023-05-16T05:56:51.619Z,17.18
2023-05-16T05:59:19.294Z,17.25
2023-05-16T06:01:47.291Z,17.35
2023-05-16T06:04:14.798Z,17.41
2023-05-16T06:06:42.610Z,17.45
2023-05-16T06:09:10.673Z,17.54
2023-05-16T06:11:38.824Z,17.60
2023-05-16T06:14:07.132Z,17.68
2023-05-16T06:16:34.863Z,17.72
2023-05-16T06:19:02.726Z,17.76
2023-05-16T06:21:30.781Z,17.84
2023-05-16T06:23:58.921Z,17.92
2023-05-16T06:26:26.699Z,17.97
2023-05-16T06:28:54.778Z,17.93
2023-05-16T06:31:25.127Z,17.94
2023-05-16T06:33:52.800Z,17.95
2023-05-16T06:36:20.799Z,18.03
2023-05-16T06:38:48.721Z,18.05
2023-05-16T06:41:16.360Z,18.07
2023-05-16T06:43:44.001Z,18.13
2023-05-16T06:46:11.909Z,18.20
2023-05-16T06:48:39.496Z,18.24
2023-05-16T06:51:11.569Z,18.34
2023-05-16T06:53:39.531Z,18.41
2023-05-16T06:56:07.580Z,18.47
2023-05-16T06:58:35.531Z,18.49
2023-05-16T07:01:06.368Z,18.55
2023-05-16T07:03:34.427Z,18.57
2023-05-16T07:06:02.116Z,18.63
2023-05-16T07:08:30.133Z,18.70
2023-05-16T07:10:58.008Z,18.76
2023-05-16T07:13:25.817Z,18.81
2023-05-16T07:15:54.408Z,18.86
2023-05-16T07:18:22.402Z,18.84
2023-05-16T07:20:54.792Z,18.88
2023-05-16T07:23:54.399Z,18.88
2023-05-16T07:26:23.424Z,18.96
2023-05-16T07:28:51.496Z,18.95
2023-05-16T07:31:19.340Z,18.91
2023-05-16T07:33:47.314Z,18.88
2023-05-16T07:36:17.260Z,18.90
2023-05-16T07:38:45.728Z,19.00
2023-05-16T07:41:13.276Z,19.07
2023-05-16T07:43:41.334Z,19.13
2023-05-16T07:46:09.183Z,19.14
2023-05-16T07:48:37.245Z,19.06
2023-05-16T07:51:05.124Z,19.02
2023-05-16T07:53:32.779Z,19.02
2023-05-16T07:56:00.703Z,19.07
2023-05-16T07:58:28.746Z,19.16
2023-05-16T08:00:56.605Z,19.19
2023-05-16T08:03:24.367Z,19.27
2023-05-16T08:05:53.400Z,19.25
2023-05-16T08:08:21.371Z,19.19
2023-05-16T08:10:49.580Z,19.27
2023-05-16T08:13:17.541Z,19.34
2023-05-16T08:15:45.311Z,19.40
2023-05-16T08:18:15.478Z,19.44
2023-05-16T08:20:43.748Z,19.50
2023-05-16T08:23:11.694Z,19.55
2023-05-16T08:25:39.471Z,19.51
2023-05-16T08:28:07.441Z,19.49
2023-05-16T08:30:35.242Z,19.51
2023-05-16T08:33:05.563Z,19.56
2023-05-16T08:35:35.722Z,19.57
2023-05-16T08:38:03.781Z,19.65
2023-05-16T08:40:31.750Z,19.75
2023-05-16T08:42:59.546Z,19.85
2023-05-16T08:45:27.613Z,19.80
2023-05-16T08:47:57.343Z,19.79
2023-05-16T08:50:25.971Z,19.76
2023-05-16T08:52:54.571Z,19.73
2023-05-16T08:55:23.474Z,19.73
2023-05-16T08:57:54.429Z,19.83
2023-05-16T09:00:22.790Z,19.90
2023-05-16T09:02:51.261Z,19.97
2023-05-16T09:05:19.245Z,20.04
2023-05-16T09:07:46.996Z,19.98
2023-05-16T09:10:15.025Z,19.96
2023-05-16T09:12:43.808Z,20.06
2023-05-16T09:15:11.986Z,20.17
2023-05-16T09:17:43.656Z,20.22
2023-05-16T09:20:16.804Z,20.28
2023-05-16T09:22:56.606Z,20.28
2023-05-16T09:25:31.463Z,20.29
2023-05-16T09:28:02.084Z,20.35
2023-05-16T09:30:35.330Z,20.40
2023-05-16T09:33:03.390Z,20.45
2023-05-16T09:35:44.110Z,20.44
2023-05-16T09:38:17.584Z,20.47
2023-05-16T09:40:47.990Z,20.52
2023-05-16T09:43:17.593Z,20.60
2023-05-16T09:45:48.542Z,20.68
2023-05-16T09:48:17.422Z,20.72
2023-05-16T09:50:53.585Z,20.76
2023-05-16T09:53:28.680Z,20.76
2023-05-16T09:56:12.373Z,20.83
2023-05-16T09:58:44.769Z,20.83
2023-05-16T10:01:12.827Z,20.87
2023-05-16T10:03:43.989Z,20.91
2023-05-16T10:06:13.984Z,20.90
2023-05-16T10:08:52.443Z,20.88
2023-05-16T10:11:20.945Z,20.91
2023-05-16T10:13:55.419Z,20.93
2023-05-16T10:16:24.839Z,20.94
2023-05-16T10:18:53.561Z,20.98
2023-05-16T10:21:23.626Z,20.97
2023-05-16T10:23:57.274Z,20.96
2023-05-16T10:26:26.778Z,20.96
2023-05-16T10:28:55.815Z,21.00
2023-05-16T10:31:25.141Z,21.06
2023-05-16T10:33:53.638Z,21.11
2023-05-16T10:36:21.848Z,21.14
2023-05-16T10:38:52.267Z,21.16
2023-05-16T10:41:22.250Z,21.18
2023-05-16T10:43:58.189Z,21.19
2023-05-16T10:46:29.468Z,21.24
2023-05-16T10:48:58.711Z,21.27
2023-05-16T10:51:32.671Z,21.32
2023-05-16T10:54:08.322Z,21.38
2023-05-16T10:56:36.831Z,21.41
2023-05-16T10:59:11.415Z,21.48
2023-05-16T11:01:41.645Z,21.53
2023-05-16T11:04:11.618Z,21.57
2023-05-16T11:07:00.100Z,21.52
2023-05-16T11:09:28.428Z,21.53
2023-05-16T11:12:04.325Z,21.57
2023-05-16T11:14:35.096Z,21.71
2023-05-16T11:17:07.968Z,21.78
2023-05-16T11:19:53.086Z,21.90
2023-05-16T11:22:23.372Z,21.94
2023-05-16T11:24:55.491Z,21.99
2023-05-16T11:27:26.167Z,22.01
2023-05-16T11:29:55.500Z,21.91
2023-05-16T11:32:24.143Z,21.92
2023-05-16T11:34:53.350Z,21.94
2023-05-16T11:37:21.458Z,21.99
2023-05-16T11:39:49.426Z,22.03
2023-05-16T11:42:18.213Z,22.11
2023-05-16T11:44:46.821Z,22.17
2023-05-16T11:47:14.851Z,22.24
2023-05-16T11:49:42.404Z,22.28
2023-05-16T11:52:10.490Z,22.28
2023-05-16T11:54:38.948Z,22.28
2023-05-16T11:57:06.734Z,22.32
2023-05-16T11:59:34.434Z,22.36
2023-05-16T12:02:04.766Z,22.42
2023-05-16T12:04:33.037Z,22.55
2023-05-16T12:07:01.945Z,22.59
2023-05-16T12:09:34.502Z,22.62
2023-05-16T12:12:06.022Z,22.72
2023-05-16T12:14:33.931Z,22.78
2023-05-16T12:17:01.635Z,22.80
2023-05-16T12:19:29.614Z,22.87
2023-05-16T12:21:57.397Z,22.91
2023-05-16T12:24:33.044Z,22.94
2023-05-16T12:27:00.747Z,22.93
2023-05-16T12:29:28.581Z,23.06
2023-05-16T12:31:56.671Z,23.24
2023-05-16T12:34:24.853Z,23.67
2023-05-16T12:36:55.370Z,24.95
2023-05-16T12:39:26.187Z,27.13
